No 31 Takemaru — JG5731 — position and weather

sailwx.info

Track history (hours):
 
Tides and Currents Weather Stations Pressure Air Temp Water Temp Dewpoint Dewpoint Depression Visibility Wind Speed Wind Dir Waves Ship Positions

No 31 Takemaru

Last reported at 2016-Dec-09 11:33 UTC. Time now 2016-Dec-09 11:42 UTC.
Position N 34°39' E 135°28'.

Length 31 m; draft 2.5 m.

Type: Tug. MMSI: 431000439.

Date/timePositionNaut miles runAvg speedWind from/ knotsBaromVisibWave heightAir tempDewpointWater temp
2016-Dec-09 11:33N 34°39' E 135°28'0 0.0
2016-Dec-09 10:33N 34°39' E 135°28'0 0.0
2016-Dec-09 09:33N 34°39' E 135°28'0 0.0
2016-Dec-09 08:33N 34°39' E 135°28'0 0.0
2016-Dec-09 07:33N 34°39' E 135°28'0 0.0
2016-Dec-09 06:33N 34°39' E 135°28'2 1.5
2016-Dec-09 05:33N 34°38' E 135°27'1 0.4
2016-Dec-09 01:19N 34°39' E 135°28'0 0.0
2016-Dec-08 23:30N 34°39' E 135°28'3 3.0
2016-Dec-08 22:33N 34°39' E 135°24'3 2.8
2016-Dec-08 21:31N 34°39' E 135°28'0 0.0
2016-Dec-08 20:30N 34°39' E 135°28'0 0.0
2016-Dec-08 19:33N 34°39' E 135°28'0 0.0
2016-Dec-08 18:32N 34°39' E 135°28'0 0.0
2016-Dec-08 17:30N 34°39' E 135°28'0 0.0
2016-Dec-08 16:33N 34°39' E 135°28'3 3.4
2016-Dec-08 15:34N 34°39' E 135°24'3 1.1
2016-Dec-08 12:29N 34°39' E 135°28'0 0.0
2016-Dec-08 11:30N 34°39' E 135°28'0 0.0
2016-Dec-08 02:31N 34°39' E 135°28'0 0.0
2016-Dec-08 01:07N 34°39' E 135°28'0 0.0
2016-Dec-07 23:23N 34°39' E 135°28'0 0.0
2016-Dec-07 22:26N 34°39' E 135°28'0 0.0
2016-Dec-07 21:29N 34°39' E 135°28'0 0.0
2016-Dec-07 12:15N 34°39' E 135°28'0 0.0
2016-Dec-07 11:25N 34°39' E 135°28'3 3.2
2016-Dec-07 10:33N 34°40' E 135°25'3 0.3
2016-Dec-07 00:31N 34°39' E 135°28'3 2.9
2016-Dec-06 23:33N 34°39' E 135°25'0 0.4
2016-Dec-06 22:34N 34°39' E 135°24'1 0.6
2016-Dec-06 21:33N 34°39' E 135°24'1 0.9
2016-Dec-06 20:33N 34°39' E 135°25'3 0.4
2016-Dec-06 14:10N 34°39' E 135°28'3 5.3
2016-Dec-06 13:33N 34°39' E 135°24'1 1.0
2016-Dec-06 12:33N 34°38' E 135°24'2 1.7
2016-Dec-06 11:33N 34°39' E 135°26'1 1.2
2016-Dec-06 10:33N 34°39' E 135°27'0 0.2
2016-Dec-06 08:33N 34°39' E 135°27'2 1.9
2016-Dec-06 07:33N 34°39' E 135°25'2 1.8
2016-Dec-06 06:33N 34°38' E 135°24'3 2.6
2016-Dec-06 05:33N 34°39' E 135°27'1 0.2
2016-Dec-06 01:32N 34°39' E 135°28'0 0.0
2016-Dec-06 00:05N 34°39' E 135°28'0 0.0
2016-Dec-05 23:32N 34°39' E 135°28'3 3.5
2016-Dec-05 22:33N 34°38' E 135°24'2 2.2
2016-Dec-05 21:33N 34°39' E 135°26'1 0.6
2016-Dec-05 19:25N 34°39' E 135°28'0 0.0
2016-Dec-05 17:33N 34°39' E 135°28'0 0.0
2016-Dec-05 16:33N 34°39' E 135°28'0 0.0
2016-Dec-05 15:32N 34°39' E 135°28'2 2.0
2016-Dec-05 14:33N 34°39' E 135°26'2 1.8
2016-Dec-05 13:26N 34°39' E 135°28'0 0.0
2016-Dec-05 12:32N 34°39' E 135°28'0 0.0
2016-Dec-05 11:33N 34°39' E 135°28'0 0.0
2016-Dec-05 10:33N 34°39' E 135°28'2 1.9
2016-Dec-05 09:33N 34°39' E 135°26'1 0.9
2016-Dec-05 08:33N 34°39' E 135°27'1 1.0
2016-Dec-05 07:24N 34°39' E 135°28'0 0.0
2016-Dec-05 06:26N 34°39' E 135°28'0 0.0
2016-Dec-05 04:32N 34°39' E 135°28'0 0.0
2016-Dec-05 03:32N 34°39' E 135°28'0 0.0
2016-Dec-05 02:33N 34°39' E 135°28'0 0.0
2016-Dec-05 01:33N 34°39' E 135°28'0 0.0
2016-Dec-05 00:33N 34°39' E 135°28'1 1.5
2016-Dec-04 23:33N 34°40' E 135°27'2 2.1
2016-Dec-04 22:33N 34°39' E 135°24'0 0.4
2016-Dec-04 21:33N 34°39' E 135°25'3 2.1
2016-Dec-04 20:21N 34°39' E 135°28'0 0.0
2016-Dec-04 19:33N 34°39' E 135°28'0 0.0
2016-Dec-04 18:26N 34°39' E 135°28'0 0.0
2016-Dec-04 17:22N 34°39' E 135°28'0 0.0
2016-Dec-04 16:30N 34°39' E 135°28'0 0.0
2016-Dec-04 09:17N 34°39' E 135°28'3 4.5
2016-Dec-04 08:33N 34°39' E 135°24'3 0.1
2016-Dec-03 06:15N 34°39' E 135°28'0 0.0
2016-Dec-03 00:04N 34°39' E 135°28'1 2.8
2016-Dec-02 23:33N 34°40' E 135°27'2 1.8
2016-Dec-02 22:33N 34°39' E 135°25'1 0.5
2016-Dec-02 21:33N 34°39' E 135°24'1 0.5
2016-Dec-02 20:33N 34°39' E 135°24'2 0.2
2016-Dec-02 10:22N 34°38' E 135°26'2 2.1
2016-Dec-02 09:33N 34°39' E 135°25'3 1.3
2016-Dec-02 07:29N 34°39' E 135°28'0 0.1
2016-Dec-02 06:32N 34°39' E 135°28'0 0.0
2016-Dec-01 23:33N 34°39' E 135°28'4 3.7
2016-Dec-01 22:33N 34°38' E 135°23'2 2.5
2016-Dec-01 21:33N 34°39' E 135°26'1 1.0
2016-Dec-01 20:21N 34°39' E 135°28'0 0.0
2016-Dec-01 19:23N 34°39' E 135°28'0 0.0
2016-Dec-01 18:23N 34°39' E 135°28'0 0.0
2016-Dec-01 17:13N 34°39' E 135°28'0 0.0
2016-Dec-01 16:33N 34°39' E 135°28'3 0.3
2016-Dec-01 07:31N 34°39' E 135°25'1 0.7
2016-Dec-01 06:33N 34°39' E 135°26'2 1.9
2016-Dec-01 05:31N 34°39' E 135°28'0 0.0
2016-Dec-01 04:33N 34°39' E 135°28'0 0.0
2016-Dec-01 03:31N 34°39' E 135°28'0 0.0
2016-Dec-01 02:07N 34°39' E 135°28'0 0.0
2016-Dec-01 01:26N 34°39' E 135°28'0 0.0
2016-Dec-01 00:08N 34°39' E 135°28'0 0.0
2016-Nov-30 23:33N 34°39' E 135°28'2 2.0
2016-Nov-30 22:33N 34°39' E 135°26'1 1.1
2016-Nov-30 21:34N 34°39' E 135°24'3 2.8
2016-Nov-30 20:29N 34°39' E 135°28'0 0.0
2016-Nov-30 19:24N 34°39' E 135°28'2 2.6
2016-Nov-30 18:33N 34°39' E 135°25'0 0.4
2016-Nov-30 17:33N 34°39' E 135°26'2 1.8
2016-Nov-30 16:30N 34°39' E 135°28'0 0.0
2016-Nov-30 15:33N 34°39' E 135°28'0 0.0
2016-Nov-30 14:33N 34°39' E 135°28'0 0.0
2016-Nov-30 13:22N 34°39' E 135°28'0 0.0
2016-Nov-30 12:06N 34°39' E 135°28'1 1.7
2016-Nov-30 11:33N 34°39' E 135°27'2 2.3
2016-Nov-30 10:33N 34°38' E 135°24'3 1.0
2016-Nov-30 07:13N 34°39' E 135°28'1 1.6
2016-Nov-30 06:33N 34°39' E 135°27'1 0.4
2016-Nov-30 04:05N 34°39' E 135°28'0 0.0
2016-Nov-30 03:29N 34°39' E 135°28'3 3.3
2016-Nov-30 02:33N 34°39' E 135°24'2 2.0
2016-Nov-30 01:33N 34°37' E 135°24'1 1.5
2016-Nov-30 00:33N 34°38' E 135°23'4 3.8
2016-Nov-29 23:32N 34°39' E 135°28'0 0.0
2016-Nov-29 22:33N 34°39' E 135°28'0 0.0
2016-Nov-29 21:32N 34°39' E 135°28'0 0.0
2016-Nov-29 20:21N 34°39' E 135°28'0 0.0
2016-Nov-29 19:32N 34°39' E 135°28'0 0.0
2016-Nov-29 18:27N 34°39' E 135°28'0 0.0
2016-Nov-29 17:33N 34°39' E 135°28'0 0.0
2016-Nov-29 16:33N 34°39' E 135°28'0 0.0
2016-Nov-29 15:33N 34°39' E 135°28'0 0.0
2016-Nov-29 14:32N 34°39' E 135°28'0 0.0
2016-Nov-29 13:32N 34°39' E 135°28'1 1.5
2016-Nov-29 12:33N 34°39' E 135°26'2 2.1
2016-Nov-29 11:33N 34°38' E 135°24'  
Track history (hours):
 
Tides and Currents Weather Stations Pressure Air Temp Water Temp Dewpoint Dewpoint Depression Visibility Wind Speed Wind Dir Waves Ship Positions

No 31 Takemaru

Last reported at 2016-Dec-09 11:33 UTC. Time now 2016-Dec-09 11:42 UTC.
Position N 34°39' E 135°28'.

Length 31 m; draft 2.5 m.

Type: Tug. MMSI: 431000439.

Date/timePositionNaut miles runAvg speedWind from/ knotsBaromVisibWave heightAir tempDewpointWater temp
2016-Dec-09 11:33N 34°39' E 135°28'0 0.0
2016-Dec-09 10:33N 34°39' E 135°28'0 0.0
2016-Dec-09 09:33N 34°39' E 135°28'0 0.0
2016-Dec-09 08:33N 34°39' E 135°28'0 0.0
2016-Dec-09 07:33N 34°39' E 135°28'0 0.0
2016-Dec-09 06:33N 34°39' E 135°28'2 1.5
2016-Dec-09 05:33N 34°38' E 135°27'1 0.4
2016-Dec-09 01:19N 34°39' E 135°28'0 0.0
2016-Dec-08 23:30N 34°39' E 135°28'3 3.0
2016-Dec-08 22:33N 34°39' E 135°24'3 2.8
2016-Dec-08 21:31N 34°39' E 135°28'0 0.0
2016-Dec-08 20:30N 34°39' E 135°28'0 0.0
2016-Dec-08 19:33N 34°39' E 135°28'0 0.0
2016-Dec-08 18:32N 34°39' E 135°28'0 0.0
2016-Dec-08 17:30N 34°39' E 135°28'0 0.0
2016-Dec-08 16:33N 34°39' E 135°28'3 3.4
2016-Dec-08 15:34N 34°39' E 135°24'3 1.1
2016-Dec-08 12:29N 34°39' E 135°28'0 0.0
2016-Dec-08 11:30N 34°39' E 135°28'0 0.0
2016-Dec-08 02:31N 34°39' E 135°28'0 0.0
2016-Dec-08 01:07N 34°39' E 135°28'0 0.0
2016-Dec-07 23:23N 34°39' E 135°28'0 0.0
2016-Dec-07 22:26N 34°39' E 135°28'0 0.0
2016-Dec-07 21:29N 34°39' E 135°28'0 0.0
2016-Dec-07 12:15N 34°39' E 135°28'0 0.0
2016-Dec-07 11:25N 34°39' E 135°28'3 3.2
2016-Dec-07 10:33N 34°40' E 135°25'3 0.3
2016-Dec-07 00:31N 34°39' E 135°28'3 2.9
2016-Dec-06 23:33N 34°39' E 135°25'0 0.4
2016-Dec-06 22:34N 34°39' E 135°24'1 0.6
2016-Dec-06 21:33N 34°39' E 135°24'1 0.9
2016-Dec-06 20:33N 34°39' E 135°25'3 0.4
2016-Dec-06 14:10N 34°39' E 135°28'3 5.3
2016-Dec-06 13:33N 34°39' E 135°24'1 1.0
2016-Dec-06 12:33N 34°38' E 135°24'2 1.7
2016-Dec-06 11:33N 34°39' E 135°26'1 1.2
2016-Dec-06 10:33N 34°39' E 135°27'0 0.2
2016-Dec-06 08:33N 34°39' E 135°27'2 1.9
2016-Dec-06 07:33N 34°39' E 135°25'2 1.8
2016-Dec-06 06:33N 34°38' E 135°24'3 2.6
2016-Dec-06 05:33N 34°39' E 135°27'1 0.2
2016-Dec-06 01:32N 34°39' E 135°28'0 0.0
2016-Dec-06 00:05N 34°39' E 135°28'0 0.0
2016-Dec-05 23:32N 34°39' E 135°28'3 3.5
2016-Dec-05 22:33N 34°38' E 135°24'2 2.2
2016-Dec-05 21:33N 34°39' E 135°26'1 0.6
2016-Dec-05 19:25N 34°39' E 135°28'0 0.0
2016-Dec-05 17:33N 34°39' E 135°28'0 0.0
2016-Dec-05 16:33N 34°39' E 135°28'0 0.0
2016-Dec-05 15:32N 34°39' E 135°28'2 2.0
2016-Dec-05 14:33N 34°39' E 135°26'2 1.8
2016-Dec-05 13:26N 34°39' E 135°28'0 0.0
2016-Dec-05 12:32N 34°39' E 135°28'0 0.0
2016-Dec-05 11:33N 34°39' E 135°28'0 0.0
2016-Dec-05 10:33N 34°39' E 135°28'2 1.9
2016-Dec-05 09:33N 34°39' E 135°26'1 0.9
2016-Dec-05 08:33N 34°39' E 135°27'1 1.0
2016-Dec-05 07:24N 34°39' E 135°28'0 0.0
2016-Dec-05 06:26N 34°39' E 135°28'0 0.0
2016-Dec-05 04:32N 34°39' E 135°28'0 0.0
2016-Dec-05 03:32N 34°39' E 135°28'0 0.0
2016-Dec-05 02:33N 34°39' E 135°28'0 0.0
2016-Dec-05 01:33N 34°39' E 135°28'0 0.0
2016-Dec-05 00:33N 34°39' E 135°28'1 1.5
2016-Dec-04 23:33N 34°40' E 135°27'2 2.1
2016-Dec-04 22:33N 34°39' E 135°24'0 0.4
2016-Dec-04 21:33N 34°39' E 135°25'3 2.1
2016-Dec-04 20:21N 34°39' E 135°28'0 0.0
2016-Dec-04 19:33N 34°39' E 135°28'0 0.0
2016-Dec-04 18:26N 34°39' E 135°28'0 0.0
2016-Dec-04 17:22N 34°39' E 135°28'0 0.0
2016-Dec-04 16:30N 34°39' E 135°28'0 0.0
2016-Dec-04 09:17N 34°39' E 135°28'3 4.5
2016-Dec-04 08:33N 34°39' E 135°24'3 0.1
2016-Dec-03 06:15N 34°39' E 135°28'0 0.0
2016-Dec-03 00:04N 34°39' E 135°28'1 2.8
2016-Dec-02 23:33N 34°40' E 135°27'2 1.8
2016-Dec-02 22:33N 34°39' E 135°25'1 0.5
2016-Dec-02 21:33N 34°39' E 135°24'1 0.5
2016-Dec-02 20:33N 34°39' E 135°24'2 0.2
2016-Dec-02 10:22N 34°38' E 135°26'2 2.1
2016-Dec-02 09:33N 34°39' E 135°25'3 1.3
2016-Dec-02 07:29N 34°39' E 135°28'0 0.1
2016-Dec-02 06:32N 34°39' E 135°28'0 0.0
2016-Dec-01 23:33N 34°39' E 135°28'4 3.7
2016-Dec-01 22:33N 34°38' E 135°23'2 2.5
2016-Dec-01 21:33N 34°39' E 135°26'1 1.0
2016-Dec-01 20:21N 34°39' E 135°28'0 0.0
2016-Dec-01 19:23N 34°39' E 135°28'0 0.0
2016-Dec-01 18:23N 34°39' E 135°28'0 0.0
2016-Dec-01 17:13N 34°39' E 135°28'0 0.0
2016-Dec-01 16:33N 34°39' E 135°28'3 0.3
2016-Dec-01 07:31N 34°39' E 135°25'1 0.7
2016-Dec-01 06:33N 34°39' E 135°26'2 1.9
2016-Dec-01 05:31N 34°39' E 135°28'0 0.0
2016-Dec-01 04:33N 34°39' E 135°28'0 0.0
2016-Dec-01 03:31N 34°39' E 135°28'0 0.0
2016-Dec-01 02:07N 34°39' E 135°28'0 0.0
2016-Dec-01 01:26N 34°39' E 135°28'0 0.0
2016-Dec-01 00:08N 34°39' E 135°28'0 0.0
2016-Nov-30 23:33N 34°39' E 135°28'2 2.0
2016-Nov-30 22:33N 34°39' E 135°26'1 1.1
2016-Nov-30 21:34N 34°39' E 135°24'3 2.8
2016-Nov-30 20:29N 34°39' E 135°28'0 0.0
2016-Nov-30 19:24N 34°39' E 135°28'2 2.6
2016-Nov-30 18:33N 34°39' E 135°25'0 0.4
2016-Nov-30 17:33N 34°39' E 135°26'2 1.8
2016-Nov-30 16:30N 34°39' E 135°28'0 0.0
2016-Nov-30 15:33N 34°39' E 135°28'0 0.0
2016-Nov-30 14:33N 34°39' E 135°28'0 0.0
2016-Nov-30 13:22N 34°39' E 135°28'0 0.0
2016-Nov-30 12:06N 34°39' E 135°28'1 1.7
2016-Nov-30 11:33N 34°39' E 135°27'2 2.3
2016-Nov-30 10:33N 34°38' E 135°24'3 1.0
2016-Nov-30 07:13N 34°39' E 135°28'1 1.6
2016-Nov-30 06:33N 34°39' E 135°27'1 0.4
2016-Nov-30 04:05N 34°39' E 135°28'0 0.0
2016-Nov-30 03:29N 34°39' E 135°28'3 3.3
2016-Nov-30 02:33N 34°39' E 135°24'2 2.0
2016-Nov-30 01:33N 34°37' E 135°24'1 1.5
2016-Nov-30 00:33N 34°38' E 135°23'4 3.8
2016-Nov-29 23:32N 34°39' E 135°28'0 0.0
2016-Nov-29 22:33N 34°39' E 135°28'0 0.0
2016-Nov-29 21:32N 34°39' E 135°28'0 0.0
2016-Nov-29 20:21N 34°39' E 135°28'0 0.0
2016-Nov-29 19:32N 34°39' E 135°28'0 0.0
2016-Nov-29 18:27N 34°39' E 135°28'0 0.0
2016-Nov-29 17:33N 34°39' E 135°28'0 0.0
2016-Nov-29 16:33N 34°39' E 135°28'0 0.0
2016-Nov-29 15:33N 34°39' E 135°28'0 0.0
2016-Nov-29 14:32N 34°39' E 135°28'0 0.0
2016-Nov-29 13:32N 34°39' E 135°28'1 1.5
2016-Nov-29 12:33N 34°39' E 135°26'2 2.1
2016-Nov-29 11:33N 34°38' E 135°24'  

Dump ship's entire track history